Time;durP1;ratioP1;P1;durP2;ratioP2;P2;SDS_P1;SDS_P2;PMS_P1;PMS_P2;Temp;Humidity;BMP_temperature;BMP_pressure;BME280_temperature;BME280_humidity;BME280_pressure;Samples;Min_cycle;Max_cycle;Signal;HPM_P1;HPM_P2
2022/11/18 00:01:29;;;;;;;76.80;36.27;;;;;;;1.82;100.00;99973.97;5061503;28;20017;-73
2022/11/18 00:03:57;;;;;;;71.37;34.10;;;;;;;1.85;100.00;99978.22;5058698;28;20082;-73
2022/11/18 00:06:25;;;;;;;82.17;38.83;;;;;;;1.88;100.00;99978.81;5073236;28;20017;-72
2022/11/18 00:08:52;;;;;;;75.57;36.13;;;;;;;1.89;100.00;99985.88;5073120;28;20500;-72
2022/11/18 00:14:18;;;;;;;84.47;40.17;;;;;;;1.83;100.00;99983.69;5073839;28;20035;-72
2022/11/18 00:17:00;;;;;;;77.33;36.37;;;;;;;1.82;100.00;99978.44;5074133;28;20104;-72
2022/11/18 00:19:34;;;;;;;87.63;39.10;;;;;;;1.74;100.00;99984.41;5072801;28;20021;-73
2022/11/18 00:22:01;;;;;;;87.70;41.20;;;;;;;1.64;100.00;99986.16;5074198;28;20469;-73
2022/11/18 00:24:27;;;;;;;79.20;37.70;;;;;;;1.78;100.00;99993.88;5071925;28;20024;-74
2022/11/18 00:26:53;;;;;;;87.57;39.17;;;;;;;1.73;100.00;99996.06;5072102;28;20024;-74
2022/11/18 00:29:18;;;;;;;96.90;40.20;;;;;;;1.68;100.00;99992.91;5072003;28;20111;-74
2022/11/18 00:31:44;;;;;;;84.27;40.50;;;;;;;1.56;100.00;99988.56;5068425;28;20094;-74
2022/11/18 00:34:12;;;;;;;90.63;40.20;;;;;;;1.62;100.00;100001.41;5063260;28;20478;-74
2022/11/18 00:36:37;;;;;;;81.13;39.30;;;;;;;1.57;100.00;100003.63;5059713;28;20028;-74
2022/11/18 00:39:03;;;;;;;85.43;38.07;;;;;;;1.64;100.00;100002.16;5051716;28;20029;-74
2022/11/18 00:42:49;;;;;;;86.67;39.13;;;;;;;1.66;100.00;100000.19;5051537;28;20025;-74
2022/11/18 00:44:14;;;;;;;78.40;37.93;;;;;;;1.58;100.00;99997.31;5052352;28;20090;-74
2022/11/18 00:46:40;;;;;;;90.50;40.07;;;;;;;1.89;100.00;100001.88;5051124;28;20426;-75
2022/11/18 00:49:05;;;;;;;88.67;41.50;;;;;;;1.65;100.00;100003.84;5059262;28;20032;-74
2022/11/18 00:51:30;;;;;;;78.40;40.00;;;;;;;1.52;100.00;100003.13;5062832;28;20024;-74
2022/11/18 00:53:56;;;;;;;87.60;38.83;;;;;;;1.52;100.00;100008.47;5059461;28;20021;-74
2022/11/18 00:56:21;;;;;;;95.57;38.00;;;;;;;1.71;100.00;100016.69;5062427;28;20101;-74
2022/11/18 00:58:46;;;;;;;75.27;36.30;;;;;;;1.55;100.00;100010.88;5051654;28;20116;-73
2022/11/18 01:01:12;;;;;;;77.97;37.13;;;;;;;1.57;100.00;100017.81;5069592;28;20385;-74
2022/11/18 01:03:37;;;;;;;77.13;37.57;;;;;;;1.56;100.00;100020.56;5075485;28;20136;-73
2022/11/18 01:06:03;;;;;;;76.30;37.17;;;;;;;1.48;100.00;100017.66;5052030;28;20017;-73
2022/11/18 01:08:28;;;;;;;83.03;40.13;;;;;;;1.50;100.00;100021.03;5052045;28;20036;-73
2022/11/18 01:10:53;;;;;;;83.90;38.13;;;;;;;1.41;100.00;100029.78;5051525;28;20021;-73
2022/11/18 01:13:21;;;;;;;74.83;35.07;;;;;;;1.37;100.00;100031.88;5051551;28;20035;-72
2022/11/18 01:15:50;;;;;;;84.17;41.10;;;;;;;1.32;100.00;100029.53;5051371;28;20104;-74
2022/11/18 01:18:17;;;;;;;76.93;36.33;;;;;;;1.39;100.00;100029.91;5051480;28;20025;-71
2022/11/18 01:20:43;;;;;;;82.13;39.17;;;;;;;1.51;100.00;100023.63;5051215;28;20035;-72
2022/11/18 01:23:08;;;;;;;72.67;38.17;;;;;;;1.34;100.00;100032.94;5051827;28;20036;-71
2022/11/18 01:25:36;;;;;;;73.23;36.43;;;;;;;1.32;100.00;100034.88;5051115;28;20036;-71
2022/11/18 01:28:01;;;;;;;74.70;37.90;;;;;;;1.30;100.00;100036.81;5051132;28;20020;-72
2022/11/18 01:30:27;;;;;;;77.70;36.53;;;;;;;1.31;100.00;100037.69;5052464;28;20037;-72
2022/11/18 01:32:52;;;;;;;92.67;42.83;;;;;;;1.34;100.00;100032.94;5051395;28;20040;-72
2022/11/18 01:35:17;;;;;;;70.03;36.03;;;;;;;1.36;100.00;100033.66;5064433;28;20035;-72
2022/11/18 01:37:43;;;;;;;88.60;40.83;;;;;;;1.21;100.00;100042.84;5071160;28;20031;-72
2022/11/18 01:40:09;;;;;;;78.63;36.97;;;;;;;1.29;100.00;100035.09;5071115;28;20035;-72
2022/11/18 01:42:35;;;;;;;91.37;39.67;;;;;;;1.32;100.00;100037.53;5071008;28;20031;-72
2022/11/18 01:45:18;;;;;;;93.60;42.63;;;;;;;1.39;100.00;100039.72;5072454;28;20024;-72
2022/11/18 01:47:56;;;;;;;83.80;38.20;;;;;;;1.51;100.00;100044.13;5072249;28;20025;-72
2022/11/18 01:50:23;;;;;;;86.63;40.30;;;;;;;1.41;100.00;100037.78;5072903;28;20028;-72
2022/11/18 01:52:51;;;;;;;88.97;42.27;;;;;;;1.45;100.00;100044.59;5071710;28;20024;-72
2022/11/18 01:55:24;;;;;;;88.07;43.13;;;;;;;1.29;100.00;100045.78;5070556;28;20032;-72
2022/11/18 01:57:57;;;;;;;86.40;42.00;;;;;;;1.36;100.00;100046.97;5070079;28;20020;-72
2022/11/18 02:00:22;;;;;;;87.37;42.53;;;;;;;1.48;100.00;100055.00;5071061;28;20062;-72
2022/11/18 02:02:48;;;;;;;85.80;41.93;;;;;;;1.25;100.00;100060.31;5076481;28;20090;-71
2022/11/18 02:05:15;;;;;;;103.83;43.53;;;;;;;1.44;100.00;100058.91;5073213;28;20072;-72
2022/11/18 02:07:42;;;;;;;91.93;42.23;;;;;;;1.24;100.00;100069.28;5071402;28;20055;-71
2022/11/18 02:10:08;;;;;;;89.50;42.07;;;;;;;1.48;100.00;100065.69;5070870;28;20029;-71
2022/11/18 02:12:35;;;;;;;86.53;42.60;;;;;;;1.39;100.00;100061.06;5071569;28;20020;-71
2022/11/18 02:15:01;;;;;;;109.40;44.63;;;;;;;1.32;100.00;100064.22;5070578;28;20059;-72
2022/11/18 02:17:46;;;;;;;95.73;44.20;;;;;;;1.34;100.00;100064.94;5070472;28;20024;-72
2022/11/18 02:20:38;;;;;;;93.07;42.27;;;;;;;1.35;100.00;100071.97;5071737;28;20031;-72
2022/11/18 02:23:28;;;;;;;61.05;29.17;;;;;;;1.42;100.00;100060.81;5070822;28;20036;-72
2022/11/18 02:26:19;;;;;;;77.83;39.97;;;;;;;1.28;100.00;100062.75;5070087;28;20032;-72
2022/11/18 02:29:07;;;;;;;95.83;42.73;;;;;;;1.41;100.00;100075.13;5069835;28;20028;-73
2022/11/18 02:31:38;;;;;;;85.77;40.73;;;;;;;1.31;100.00;100069.66;5070045;28;20016;-73
2022/11/18 02:34:28;;;;;;;77.07;42.37;;;;;;;1.19;100.00;100063.47;5069288;28;20037;-73
2022/11/18 02:37:06;;;;;;;85.87;40.50;;;;;;;1.40;100.00;100065.44;5069054;28;20082;-72
2022/11/18 02:39:40;;;;;;;87.97;41.87;;;;;;;1.42;100.00;100063.47;5049491;28;20025;-72
2022/11/18 02:42:10;;;;;;;92.07;42.10;;;;;;;1.32;100.00;100072.22;5052008;28;20029;-72
2022/11/18 02:44:41;;;;;;;81.37;40.70;;;;;;;1.27;100.00;100069.03;5049929;28;20127;-72
2022/11/18 02:47:10;;;;;;;79.77;41.40;;;;;;;1.35;100.00;100071.97;5050200;28;20013;-73
2022/11/18 02:49:43;;;;;;;81.50;40.00;;;;;;;1.34;100.00;100069.41;5050013;28;20032;-72
2022/11/18 02:52:11;;;;;;;100.07;44.43;;;;;;;1.36;100.00;100078.97;5051912;28;20037;-72
2022/11/18 02:54:40;;;;;;;86.90;40.47;;;;;;;1.29;100.00;100076.91;5050074;28;20036;-71
2022/11/18 02:57:06;;;;;;;70.57;35.93;;;;;;;1.28;100.00;100086.75;5049925;28;20400;-72
2022/11/18 02:59:32;;;;;;;75.23;37.67;;;;;;;1.29;100.00;100077.78;5047868;28;20104;-71
2022/11/18 03:01:57;;;;;;;77.87;41.10;;;;;;;1.24;100.00;100082.63;5049776;28;20192;-71
2022/11/18 03:04:24;;;;;;;89.27;43.67;;;;;;;1.39;100.00;100087.75;5068571;28;20020;-72
2022/11/18 03:07:04;;;;;;;83.67;40.43;;;;;;;1.31;100.00;100094.53;5069852;28;20427;-71
2022/11/18 03:09:35;;;;;;;77.63;39.50;;;;;;;1.35;100.00;100092.44;5072852;28;20025;-72
2022/11/18 03:12:22;;;;;;;86.27;42.40;;;;;;;1.46;100.00;100094.28;5074035;28;20105;-72
2022/11/18 03:15:06;;;;;;;79.73;39.33;;;;;;;1.38;100.00;100091.38;5074899;28;20105;-72
2022/11/18 03:17:57;;;;;;;79.37;39.80;;;;;;;1.50;100.00;100090.41;5073602;28;20090;-72
2022/11/18 03:20:27;;;;;;;80.57;38.27;;;;;;;1.31;100.00;100099.00;5073736;28;20025;-72
2022/11/18 03:23:05;;;;;;;72.33;37.10;;;;;;;1.40;100.00;100089.44;5075330;28;20023;-72
2022/11/18 03:28:42;;;;;;;68.17;36.53;;;;;;;1.24;100.00;100095.97;5150837;22;20057;-78
2022/11/18 03:31:24;;;;;;;73.60;37.53;;;;;;;1.31;100.00;100107.00;5016079;28;20033;-79
2022/11/18 03:33:56;;;;;;;67.83;35.37;;;;;;;1.28;100.00;100102.75;5017006;28;20040;-79
2022/11/18 03:36:28;;;;;;;66.77;34.27;;;;;;;1.41;100.00;100112.47;4994788;28;20030;-78
2022/11/18 03:38:59;;;;;;;68.20;37.23;;;;;;;1.33;100.00;100110.41;5013952;28;20041;-79
2022/11/18 03:41:28;;;;;;;73.37;36.40;;;;;;;1.36;100.00;100108.31;4997511;28;20033;-79
2022/11/18 03:44:20;;;;;;;62.70;34.57;;;;;;;1.25;100.00;100113.66;4997326;28;20069;-78
2022/11/18 03:46:55;;;;;;;62.83;35.70;;;;;;;1.41;100.00;100112.47;5009790;28;20041;-78
2022/11/18 03:49:29;;;;;;;71.90;35.80;;;;;;;1.23;100.00;100118.22;5014907;28;20129;-78
2022/11/18 03:52:00;;;;;;;64.10;34.03;;;;;;;1.16;100.00;100109.00;4997016;28;20061;-78
2022/11/18 03:54:32;;;;;;;64.17;35.20;;;;;;;1.18;100.00;100112.44;5014900;28;20451;-79
2022/11/18 03:57:06;;;;;;;70.40;37.90;;;;;;;1.12;100.00;100115.56;4998027;28;20053;-79
2022/11/18 03:59:36;;;;;;;60.13;34.63;;;;;;;1.09;100.00;100123.78;4997966;28;20116;-78
2022/11/18 04:02:16;;;;;;;61.63;35.07;;;;;;;1.25;100.00;100128.81;4998661;28;20041;-78
2022/11/18 04:04:44;;;;;;;60.50;33.57;;;;;;;1.25;100.00;100129.66;4993153;28;20394;-79
2022/11/18 04:07:18;;;;;;;67.63;35.23;;;;;;;1.20;100.00;100130.97;4995120;28;20114;-79
2022/11/18 04:09:50;;;;;;;62.50;35.27;;;;;;;1.14;100.00;100142.94;4995730;28;20034;-79
2022/11/18 04:12:19;;;;;;;60.20;34.88;;;;;;;1.20;100.00;100139.81;4997968;28;20037;-79
2022/11/18 04:14:48;;;;;;;62.97;36.73;;;;;;;1.25;100.00;100140.31;4997282;28;20026;-79
2022/11/18 04:17:20;;;;;;;58.37;34.73;;;;;;;1.05;100.00;100143.66;4997828;28;20026;-79
2022/11/18 04:19:46;;;;;;;68.90;36.63;;;;;;;1.13;100.00;100151.91;4996764;28;20149;-79
2022/11/18 04:22:12;;;;;;;58.80;35.63;;;;;;;1.03;100.00;100145.56;5005185;28;20049;-81
2022/11/18 04:24:38;;;;;;;65.47;39.17;;;;;;;1.00;100.00;100148.47;5014883;28;20025;-81
2022/11/18 04:27:05;;;;;;;62.83;37.03;;;;;;;1.00;100.00;100156.47;5024663;28;20133;-78
2022/11/18 04:29:31;;;;;;;61.57;35.77;;;;;;;1.11;100.00;100158.31;4995968;28;20026;-78
2022/11/18 04:31:58;;;;;;;69.00;38.07;;;;;;;1.31;100.00;100160.34;4996658;28;20478;-79
2022/11/18 04:34:23;;;;;;;62.00;36.10;;;;;;;1.25;100.00;100156.31;4995614;28;20029;-79
2022/11/18 04:36:48;;;;;;;66.70;36.33;;;;;;;1.16;100.00;100162.31;4996122;28;20433;-78
2022/11/18 04:39:14;;;;;;;64.03;35.67;;;;;;;1.11;100.00;100163.63;5013522;28;20030;-79
2022/11/18 04:41:55;;;;;;;72.07;39.37;;;;;;;0.95;100.00;100158.63;4995667;28;20038;-78
2022/11/18 04:44:31;;;;;;;76.23;38.53;;;;;;;1.16;100.00;100167.66;4995811;28;20032;-79
2022/11/18 04:47:01;;;;;;;70.77;39.37;;;;;;;1.05;100.00;100164.97;4995033;28;20018;-78
2022/11/18 04:49:27;;;;;;;66.67;38.23;;;;;;;0.90;100.00;100172.28;4995265;28;20084;-78
2022/11/18 04:51:53;;;;;;;65.50;36.33;;;;;;;0.99;100.00;100170.75;4994758;28;20111;-78
2022/11/18 04:54:20;;;;;;;71.70;40.77;;;;;;;1.10;100.00;100184.09;4994800;28;20022;-77
2022/11/18 04:56:46;;;;;;;72.37;40.37;;;;;;;1.05;100.00;100180.97;4995272;28;20029;-77
2022/11/18 04:59:12;;;;;;;64.17;37.47;;;;;;;1.01;100.00;100184.81;4995263;28;20422;-77
2022/11/18 05:01:38;;;;;;;73.07;40.37;;;;;;;1.04;100.00;100184.56;4994957;28;20030;-77
2022/11/18 05:04:04;;;;;;;79.47;41.23;;;;;;;1.01;100.00;100179.47;5012019;28;20093;-77
2022/11/18 05:06:31;;;;;;;66.03;37.33;;;;;;;0.96;100.00;100189.63;4994457;28;20018;-78
2022/11/18 05:08:58;;;;;;;77.13;40.20;;;;;;;1.01;100.00;100184.81;4995138;28;20022;-77
2022/11/18 05:14:08;;;;;;;68.13;39.10;;;;;;;1.01;100.00;100195.47;5011584;28;20402;-78
2022/11/18 05:16:34;;;;;;;66.97;39.33;;;;;;;1.06;100.00;100198.66;5011852;28;20022;-77
2022/11/18 05:19:01;;;;;;;73.70;42.20;;;;;;;0.93;100.00;100204.03;4995228;28;20426;-77
2022/11/18 05:21:27;;;;;;;69.47;39.80;;;;;;;0.94;100.00;100191.56;4994627;28;20116;-78
2022/11/18 05:23:52;;;;;;;65.17;37.93;;;;;;;1.07;100.00;100205.69;4994248;28;20045;-77
2022/11/18 05:26:17;;;;;;;68.13;39.37;;;;;;;0.96;100.00;100202.94;5012336;28;20482;-78
2022/11/18 05:28:43;;;;;;;70.40;40.60;;;;;;;1.05;100.00;100208.47;4994310;28;20037;-77
2022/11/18 05:31:11;;;;;;;74.33;39.80;;;;;;;1.20;100.00;100211.78;4993870;28;20022;-77
2022/11/18 05:33:37;;;;;;;64.90;38.73;;;;;;;1.07;100.00;100221.69;4993940;28;20029;-77
2022/11/18 05:36:04;;;;;;;75.13;40.10;;;;;;;0.92;100.00;100217.47;4993881;28;20036;-77
2022/11/18 05:38:31;;;;;;;76.23;41.70;;;;;;;1.14;100.00;100216.75;4994513;28;20172;-77
2022/11/18 05:40:57;;;;;;;75.17;42.30;;;;;;;1.16;100.00;100231.63;4994356;28;20037;-75
2022/11/18 05:43:22;;;;;;;78.83;44.40;;;;;;;1.18;100.00;100231.56;4993813;28;20030;-77
2022/11/18 05:45:49;;;;;;;73.87;40.17;;;;;;;1.08;100.00;100228.69;5010900;28;20112;-77
2022/11/18 05:48:15;;;;;;;77.27;41.87;;;;;;;0.97;100.00;100233.97;4994180;28;20030;-77
2022/11/18 05:50:40;;;;;;;81.03;41.33;;;;;;;0.96;100.00;100248.25;4994503;28;20018;-76
2022/11/18 05:53:07;;;;;;;74.30;41.03;;;;;;;0.90;100.00;100240.72;5010943;28;20049;-77
2022/11/18 05:55:57;;;;;;;75.67;41.63;;;;;;;0.95;100.00;100249.22;5010322;28;20018;-76
2022/11/18 05:58:22;;;;;;;83.03;43.13;;;;;;;0.89;100.00;100250.53;4994581;28;20115;-77
2022/11/18 06:00:51;;;;;;;74.37;42.53;;;;;;;1.04;100.00;100259.19;5011982;28;20085;-77
2022/11/18 06:03:27;;;;;;;76.00;42.30;;;;;;;1.08;100.00;100260.69;4988502;28;20489;-77
2022/11/18 06:05:55;;;;;;;80.23;43.47;;;;;;;1.20;100.00;100257.13;5011242;28;20042;-77
2022/11/18 06:08:24;;;;;;;81.37;44.37;;;;;;;1.08;100.00;100260.69;4993779;28;20026;-77
2022/11/18 06:10:51;;;;;;;75.03;41.53;;;;;;;0.92;100.00;100260.13;4994275;28;20037;-77
2022/11/18 06:13:25;;;;;;;81.03;44.70;;;;;;;0.99;100.00;100262.22;4994086;28;20033;-77
2022/11/18 06:15:51;;;;;;;85.43;45.47;;;;;;;1.06;100.00;100267.97;5011772;28;20026;-76
2022/11/18 06:18:26;;;;;;;79.97;43.50;;;;;;;1.13;100.00;100268.34;5012465;28;20036;-75
2022/11/18 06:20:55;;;;;;;84.70;43.13;;;;;;;0.96;100.00;100267.75;5011965;28;20100;-76
2022/11/18 06:23:21;;;;;;;79.10;41.53;;;;;;;1.02;100.00;100274.47;4994364;28;20033;-76
2022/11/18 06:25:47;;;;;;;85.67;46.47;;;;;;;1.09;100.00;100273.06;4993969;28;20040;-75
2022/11/18 06:28:14;;;;;;;77.80;43.47;;;;;;;1.15;100.00;100283.25;5011543;28;20037;-76
2022/11/18 06:30:40;;;;;;;75.13;40.27;;;;;;;1.09;100.00;100289.03;4990637;28;20037;-76
2022/11/18 06:33:05;;;;;;;90.50;47.73;;;;;;;0.99;100.00;100282.69;4993790;28;20029;-76
2022/11/18 06:35:31;;;;;;;86.77;44.57;;;;;;;0.82;100.00;100298.06;4993740;28;20025;-76
2022/11/18 06:37:56;;;;;;;77.60;41.87;;;;;;;0.99;100.00;100294.22;4993120;28;20028;-78
2022/11/18 06:40:22;;;;;;;85.00;44.80;;;;;;;1.02;100.00;100298.44;4993056;28;20034;-77
2022/11/18 06:45:31;;;;;;;88.80;44.97;;;;;;;1.03;100.00;100311.66;5011621;28;20032;-78
2022/11/18 06:47:57;;;;;;;102.57;49.57;;;;;;;1.12;100.00;100312.84;5013458;28;20030;-77
2022/11/18 06:50:23;;;;;;;87.73;48.53;;;;;;;1.05;100.00;100312.44;4997315;28;20057;-77
2022/11/18 06:52:48;;;;;;;91.70;44.33;;;;;;;0.80;100.00;100316.00;4997224;28;20474;-77
2022/11/18 06:55:14;;;;;;;83.20;45.27;;;;;;;0.78;100.00;100304.59;5014573;28;20034;-78
2022/11/18 06:57:39;;;;;;;82.07;43.87;;;;;;;0.81;100.00;100317.69;4997690;28;20028;-78
2022/11/18 07:00:05;;;;;;;92.90;45.53;;;;;;;0.82;100.00;100314.06;4997184;28;20037;-79
2022/11/18 07:02:31;;;;;;;95.40;46.10;;;;;;;1.03;100.00;100321.47;4996663;28;20086;-78
2022/11/18 07:04:56;;;;;;;77.00;40.90;;;;;;;0.97;100.00;100327.25;4996470;28;20030;-80
2022/11/18 07:07:22;;;;;;;83.27;45.93;;;;;;;0.84;100.00;100331.75;4997155;28;20053;-78
2022/11/18 07:09:47;;;;;;;71.90;40.27;;;;;;;0.86;100.00;100329.84;5013809;28;20097;-78
2022/11/18 07:12:12;;;;;;;88.40;44.53;;;;;;;0.97;100.00;100340.56;5015717;28;20033;-70
2022/11/18 07:14:38;;;;;;;83.33;44.80;;;;;;;0.86;100.00;100340.50;5015745;28;20041;-70
2022/11/18 07:17:03;;;;;;;78.17;42.63;;;;;;;0.80;100.00;100347.97;4997125;28;20118;-70
2022/11/18 07:19:28;;;;;;;68.43;39.33;;;;;;;0.81;100.00;100344.34;4997343;28;20034;-70
2022/11/18 07:21:54;;;;;;;79.10;40.67;;;;;;;0.84;100.00;100353.06;4996962;28;20041;-71
2022/11/18 07:24:19;;;;;;;75.87;41.87;;;;;;;0.88;100.00;100359.91;5014876;28;20036;-70
2022/11/18 07:26:45;;;;;;;67.13;41.07;;;;;;;0.73;100.00;100351.19;4995042;28;20474;-70
2022/11/18 07:29:10;;;;;;;69.40;39.30;;;;;;;0.85;100.00;100354.78;4989257;28;20129;-70
2022/11/18 07:31:37;;;;;;;74.83;42.27;;;;;;;0.90;100.00;100363.31;5006665;28;20057;-70
2022/11/18 07:34:03;;;;;;;69.67;36.80;;;;;;;1.04;100.00;100365.81;5007134;28;20025;-70
2022/11/18 07:36:28;;;;;;;75.80;39.70;;;;;;;1.15;100.00;100368.59;5002029;28;20030;-71
2022/11/18 07:38:57;;;;;;;74.43;40.90;;;;;;;1.12;100.00;100363.47;4991548;28;20037;-70
2022/11/18 07:41:25;;;;;;;73.53;38.90;;;;;;;1.10;100.00;100376.06;5008531;28;20030;-70
2022/11/18 07:43:52;;;;;;;69.03;37.67;;;;;;;0.94;100.00;100378.13;4986440;28;20056;-70
2022/11/18 07:46:23;;;;;;;64.60;36.30;;;;;;;0.77;100.00;100389.97;4985214;28;20394;-70
2022/11/18 07:48:50;;;;;;;57.77;31.23;;;;;;;0.72;100.00;100390.31;5005504;28;20034;-71
2022/11/18 07:51:18;;;;;;;50.03;28.53;;;;;;;0.71;100.00;100395.72;4979942;28;20026;-70
2022/11/18 07:53:43;;;;;;;61.73;33.23;;;;;;;0.61;100.00;100400.84;4984477;28;20034;-71
2022/11/18 07:56:09;;;;;;;56.43;31.23;;;;;;;0.67;100.00;100395.09;4989858;28;20033;-71
2022/11/18 07:58:35;;;;;;;50.13;29.93;;;;;;;0.66;100.00;100409.38;5006015;28;20184;-71
2022/11/18 08:01:08;;;;;;;48.47;27.97;;;;;;;0.69;100.00;100411.81;4982767;28;20120;-71
2022/11/18 08:03:33;;;;;;;50.10;28.67;;;;;;;0.91;100.00;100413.81;4977388;28;20057;-70
2022/11/18 08:06:00;;;;;;;48.87;28.17;;;;;;;0.77;100.00;100412.13;5001014;28;20530;-70
2022/11/18 08:08:26;;;;;;;42.13;25.50;;;;;;;0.82;100.00;100415.31;5000865;28;20026;-68
2022/11/18 08:10:55;;;;;;;43.17;27.33;;;;;;;0.97;100.00;100423.19;4983964;28;20048;-70
2022/11/18 08:13:20;;;;;;;43.83;26.87;;;;;;;1.06;100.00;100422.56;4982568;28;20096;-71
2022/11/18 08:15:46;;;;;;;47.10;27.47;;;;;;;0.99;100.00;100421.31;4964518;28;20430;-70
2022/11/18 08:18:11;;;;;;;43.87;26.83;;;;;;;0.84;100.00;100427.69;5003002;28;20107;-69
2022/11/18 08:20:36;;;;;;;47.40;27.10;;;;;;;1.03;100.00;100428.09;4980466;28;20074;-70
2022/11/18 08:23:02;;;;;;;44.53;26.57;;;;;;;0.95;100.00;100435.78;4982766;28;20026;-68
2022/11/18 08:25:28;;;;;;;42.97;26.03;;;;;;;0.99;100.00;100442.63;4984551;28;20049;-69
2022/11/18 08:27:53;;;;;;;45.63;27.03;;;;;;;0.96;100.00;100437.50;4983336;28;20029;-69
2022/11/18 08:30:19;;;;;;;49.03;26.03;;;;;;;1.11;100.00;100443.56;4986877;28;20037;-71
2022/11/18 08:32:44;;;;;;;44.63;28.27;;;;;;;1.07;100.00;100432.28;4984965;28;20513;-70
2022/11/18 08:35:10;;;;;;;42.47;24.73;;;;;;;1.00;100.00;100433.66;4984694;28;20026;-71
2022/11/18 08:37:35;;;;;;;42.37;25.80;;;;;;;0.98;100.00;100435.59;4984981;28;20044;-71
2022/11/18 08:40:00;;;;;;;37.07;23.17;;;;;;;0.90;100.00;100437.91;5002490;28;20095;-69
2022/11/18 08:42:26;;;;;;;43.77;27.07;;;;;;;1.09;100.00;100441.00;5001177;28;20442;-70
2022/11/18 08:44:51;;;;;;;43.60;25.17;;;;;;;1.24;100.00;100445.25;4981744;28;20034;-70
2022/11/18 08:47:17;;;;;;;45.03;26.77;;;;;;;1.50;100.00;100447.84;4965573;28;20030;-71
2022/11/18 08:49:42;;;;;;;43.40;24.40;;;;;;;1.14;100.00;100452.19;4967091;28;20022;-70
2022/11/18 08:52:08;;;;;;;44.73;25.57;;;;;;;1.08;100.00;100455.28;4982028;28;20014;-69
2022/11/18 08:54:34;;;;;;;44.00;26.83;;;;;;;0.96;100.00;100450.81;4983498;28;20036;-70
2022/11/18 08:56:59;;;;;;;41.73;24.83;;;;;;;1.06;100.00;100454.56;4984369;28;20029;-70
2022/11/18 08:59:25;;;;;;;44.80;25.40;;;;;;;1.02;99.89;100461.06;5001896;28;20049;-69
2022/11/18 09:01:51;;;;;;;38.43;24.30;;;;;;;1.11;100.00;100463.09;4983773;28;20051;-69
2022/11/18 09:04:17;;;;;;;41.50;24.93;;;;;;;0.95;99.03;100467.78;4984055;28;20029;-70
2022/11/18 09:06:42;;;;;;;38.40;25.03;;;;;;;1.07;100.00;100466.91;4983670;28;20025;-70
2022/11/18 09:09:08;;;;;;;38.03;24.07;;;;;;;1.00;99.66;100473.66;4984390;28;20025;-69
2022/11/18 09:11:36;;;;;;;38.53;22.73;;;;;;;1.14;98.50;100484.19;4984095;28;20033;-69
2022/11/18 09:14:02;;;;;;;41.67;25.37;;;;;;;1.14;99.81;100488.66;5001768;28;20052;-70
2022/11/18 09:16:30;;;;;;;44.27;25.93;;;;;;;1.30;98.65;100484.84;5002299;28;20490;-71
2022/11/18 09:18:56;;;;;;;36.23;22.43;;;;;;;1.07;97.93;100488.25;5001040;28;20026;-70
2022/11/18 09:21:22;;;;;;;37.73;23.03;;;;;;;1.11;98.79;100492.41;4984095;28;20018;-70
2022/11/18 09:23:48;;;;;;;34.13;23.07;;;;;;;1.08;97.57;100489.94;4991804;28;20028;-70
2022/11/18 09:26:18;;;;;;;36.77;22.37;;;;;;;1.27;98.33;100495.69;5000322;22;20026;-73
2022/11/18 09:28:43;;;;;;;34.77;22.30;;;;;;;1.17;96.69;100505.28;5015309;28;20032;-76
2022/11/18 09:31:11;;;;;;;34.43;20.90;;;;;;;1.26;96.75;100515.34;5017916;28;20112;-72
2022/11/18 09:33:38;;;;;;;35.57;20.90;;;;;;;1.09;96.88;100512.97;5000374;28;20037;-74
2022/11/18 09:36:10;;;;;;;30.10;19.97;;;;;;;1.30;96.97;100503.50;5032864;28;20039;-73
2022/11/18 09:38:35;;;;;;;;;;;;;;;1.31;96.23;100518.53;5012880;28;20093;-74
2022/11/18 09:41:06;;;;;;;34.93;20.70;;;;;;;1.56;96.67;100511.44;5001819;28;20012;-76
2022/11/18 09:43:56;;;;;;;26.25;16.45;;;;;;;1.35;95.91;100525.34;5029103;28;20029;-75
2022/11/18 09:46:49;;;;;;;33.63;19.53;;;;;;;1.50;96.73;100520.75;5026312;28;20039;-72
2022/11/18 09:49:29;;;;;;;33.50;18.07;;;;;;;1.52;96.27;100531.31;5012212;28;20047;-77
2022/11/18 09:51:56;;;;;;;27.70;16.90;;;;;;;1.32;93.86;100533.56;5016646;28;20115;-77
2022/11/18 09:54:47;;;;;;;29.43;17.63;;;;;;;1.43;95.07;100542.63;5027133;28;20027;-75
2022/11/18 09:57:35;;;;;;;29.90;17.33;;;;;;;1.47;95.88;100533.44;5015943;28;20040;-76
2022/11/18 10:00:01;;;;;;;27.17;17.23;;;;;;;1.54;95.56;100534.72;5007164;28;20029;-76
2022/11/18 10:02:47;;;;;;;29.50;17.77;;;;;;;1.64;96.06;100538.44;5020454;28;20029;-77
2022/11/18 10:05:19;;;;;;;30.43;16.70;;;;;;;1.44;95.87;100549.69;5016060;28;20104;-75
2022/11/18 10:08:13;;;;;;;32.63;17.77;;;;;;;1.71;96.07;100542.38;5014515;28;20041;-73
2022/11/18 10:10:55;;;;;;;26.00;15.83;;;;;;;1.71;94.06;100537.03;5004955;28;20090;-73
2022/11/18 10:13:26;;;;;;;26.80;17.10;;;;;;;1.78;94.93;100540.97;5007344;28;20055;-72
2022/11/18 10:16:04;;;;;;;25.70;14.90;;;;;;;1.89;94.54;100545.53;5003482;28;20474;-76
2022/11/18 10:18:48;;;;;;;28.53;16.20;;;;;;;1.98;93.71;100549.38;5024193;28;20029;-75
2022/11/18 10:21:36;;;;;;;25.17;16.10;;;;;;;1.82;92.74;100555.78;5003759;28;20021;-73
2022/11/18 10:24:12;;;;;;;23.50;15.50;;;;;;;1.91;94.33;100554.28;4980244;28;20038;-75
2022/11/18 10:26:40;;;;;;;22.70;14.73;;;;;;;2.15;93.07;100563.22;5034752;28;20047;-78
2022/11/18 10:29:09;;;;;;;22.67;14.83;;;;;;;1.92;93.50;100558.66;5025957;28;20080;-74
2022/11/18 10:31:50;;;;;;;21.57;13.83;;;;;;;1.77;91.73;100560.63;5019983;28;20107;-74
2022/11/18 10:34:17;;;;;;;21.55;11.80;;;;;;;1.68;92.09;100563.94;5001926;28;20033;-77
2022/11/18 10:36:43;;;;;;;21.07;12.93;;;;;;;1.90;91.29;100569.47;5027761;28;20112;-74
2022/11/18 10:39:10;;;;;;;22.00;12.23;;;;;;;1.90;91.03;100569.47;5009097;28;20132;-73
2022/11/18 10:41:46;;;;;;;24.93;12.97;;;;;;;1.68;90.65;100566.59;5023082;28;20490;-76
2022/11/18 10:44:28;;;;;;;17.93;12.23;;;;;;;1.79;92.45;100582.72;5015011;28;20029;-76
2022/11/18 10:46:53;;;;;;;;;;;;;;;1.84;90.42;100569.91;5003039;28;20117;-73
2022/11/18 10:49:19;;;;;;;19.67;10.70;;;;;;;1.93;90.51;100576.38;5027976;28;20003;-74
2022/11/18 10:51:46;;;;;;;16.47;9.83;;;;;;;1.96;89.71;100588.69;5006674;28;20021;-75
2022/11/18 10:54:21;;;;;;;16.87;10.90;;;;;;;1.96;89.84;100578.84;5015512;28;20027;-76
2022/11/18 10:56:53;;;;;;;17.60;10.07;;;;;;;1.89;88.53;100582.91;5009242;28;20018;-78
2022/11/18 10:59:49;;;;;;;16.70;10.33;;;;;;;1.84;88.47;100596.59;5022714;28;20028;-74
2022/11/18 11:02:16;;;;;;;17.40;10.03;;;;;;;1.78;88.73;100585.50;5024971;28;20032;-74
2022/11/18 11:04:44;;;;;;;27.10;10.13;;;;;;;1.74;88.03;100598.19;5015302;28;20040;-77
2022/11/18 11:07:31;;;;;;;18.93;11.40;;;;;;;1.76;89.35;100596.28;5019505;28;20022;-75
2022/11/18 11:10:16;;;;;;;18.03;9.43;;;;;;;1.67;86.54;100596.94;5011295;28;20493;-76
2022/11/18 11:12:47;;;;;;;17.57;10.27;;;;;;;1.59;86.29;100586.78;5004926;28;20026;-76
2022/11/18 11:15:18;;;;;;;17.80;9.65;;;;;;;1.73;87.09;100592.97;5005214;28;20033;-77
2022/11/18 11:21:09;;;;;;;19.67;9.83;;;;;;;1.65;87.32;100604.19;5024404;28;20143;-77
2022/11/18 11:23:35;;;;;;;17.63;10.20;;;;;;;1.71;86.20;100606.44;5019489;28;20021;-77
2022/11/18 11:26:06;;;;;;;22.83;10.57;;;;;;;1.60;87.07;100619.66;5007917;28;20027;-74
2022/11/18 11:28:43;;;;;;;22.67;11.15;;;;;;;1.55;86.35;100605.78;5013687;28;20040;-75
2022/11/18 11:31:16;;;;;;;21.97;11.47;;;;;;;1.43;86.59;100606.63;5009305;28;20088;-75
2022/11/18 11:33:41;;;;;;;20.93;11.50;;;;;;;1.59;86.49;100612.63;5016530;28;20033;-73
2022/11/18 11:36:50;;;;;;;22.13;12.13;;;;;;;1.77;87.08;100618.50;5029356;28;20033;-73
2022/11/18 11:39:43;;;;;;;24.27;11.10;;;;;;;1.83;85.87;100626.91;5010800;28;20032;-75